sensor_id;sensor_type;location;lat;lon;timestamp;pressure;altitude;pressure_sealevel;temperature;humidity
75555;BME280;66087;53.126;17.960;2023-06-14T00:01:41;101106.18;;;16.53;56.57
75555;BME280;66087;53.126;17.960;2023-06-14T00:04:28;101110.10;;;16.51;56.77
75555;BME280;66087;53.126;17.960;2023-06-14T00:06:55;101108.64;;;16.49;56.77
75555;BME280;66087;53.126;17.960;2023-06-14T00:09:24;101111.55;;;16.49;56.87
75555;BME280;66087;53.126;17.960;2023-06-14T00:11:51;101108.20;;;16.51;56.78
75555;BME280;66087;53.126;17.960;2023-06-14T00:14:22;101102.76;;;16.55;56.84
75555;BME280;66087;53.126;17.960;2023-06-14T00:16:48;101098.67;;;16.55;57.07
75555;BME280;66087;53.126;17.960;2023-06-14T00:19:13;101091.91;;;16.52;56.97
75555;BME280;66087;53.126;17.960;2023-06-14T00:21:43;101092.25;;;16.52;56.87
75555;BME280;66087;53.126;17.960;2023-06-14T00:24:09;101096.26;;;16.54;56.77
75555;BME280;66087;53.126;17.960;2023-06-14T00:26:35;101095.98;;;16.61;56.70
75555;BME280;66087;53.126;17.960;2023-06-14T00:29:02;101097.90;;;16.68;56.70
75555;BME280;66087;53.126;17.960;2023-06-14T00:31:51;101096.39;;;16.71;56.95
75555;BME280;66087;53.126;17.960;2023-06-14T00:34:18;101096.49;;;16.73;56.87
75555;BME280;66087;53.126;17.960;2023-06-14T00:36:45;101092.52;;;16.74;56.95
75555;BME280;66087;53.126;17.960;2023-06-14T00:39:14;101092.01;;;16.76;57.02
75555;BME280;66087;53.126;17.960;2023-06-14T00:41:40;101087.79;;;16.78;57.04
75555;BME280;66087;53.126;17.960;2023-06-14T00:44:26;101087.15;;;16.78;57.02
75555;BME280;66087;53.126;17.960;2023-06-14T00:46:53;101080.17;;;16.76;57.09
75555;BME280;66087;53.126;17.960;2023-06-14T00:49:23;101079.73;;;16.74;57.20
75555;BME280;66087;53.126;17.960;2023-06-14T00:51:53;101078.16;;;16.74;57.24
75555;BME280;66087;53.126;17.960;2023-06-14T00:54:19;101073.15;;;16.74;57.34
75555;BME280;66087;53.126;17.960;2023-06-14T00:56:47;101071.08;;;16.73;57.35
75555;BME280;66087;53.126;17.960;2023-06-14T00:59:13;101066.55;;;16.72;57.45
75555;BME280;66087;53.126;17.960;2023-06-14T01:01:41;101072.64;;;16.71;57.35
75555;BME280;66087;53.126;17.960;2023-06-14T01:04:08;101070.43;;;16.70;57.40
75555;BME280;66087;53.126;17.960;2023-06-14T01:12:11;101058.85;;;16.64;57.79
75555;BME280;66087;53.126;17.960;2023-06-14T01:14:42;101054.64;;;16.61;57.91
75555;BME280;66087;53.126;17.960;2023-06-14T01:17:11;101051.23;;;16.60;57.81
75555;BME280;66087;53.126;17.960;2023-06-14T01:19:43;101046.83;;;16.61;57.97
75555;BME280;66087;53.126;17.960;2023-06-14T01:22:10;101042.66;;;16.58;58.11
75555;BME280;66087;53.126;17.960;2023-06-14T01:24:37;101037.24;;;16.55;58.05
75555;BME280;66087;53.126;17.960;2023-06-14T01:27:05;101049.02;;;16.52;58.11
75555;BME280;66087;53.126;17.960;2023-06-14T01:29:33;101047.89;;;16.48;58.23
75555;BME280;66087;53.126;17.960;2023-06-14T01:32:03;101044.05;;;16.46;58.18
75555;BME280;66087;53.126;17.960;2023-06-14T01:34:31;101046.85;;;16.41;58.15
75555;BME280;66087;53.126;17.960;2023-06-14T01:36:57;101048.30;;;16.37;58.26
75555;BME280;66087;53.126;17.960;2023-06-14T01:39:25;101046.08;;;16.35;58.31
75555;BME280;66087;53.126;17.960;2023-06-14T01:41:51;101042.81;;;16.34;58.46
75555;BME280;66087;53.126;17.960;2023-06-14T01:44:18;101041.29;;;16.30;58.79
75555;BME280;66087;53.126;17.960;2023-06-14T01:46:46;101043.88;;;16.25;58.67
75555;BME280;66087;53.126;17.960;2023-06-14T01:49:11;101042.45;;;16.23;59.06
75555;BME280;66087;53.126;17.960;2023-06-14T01:51:37;101035.41;;;16.23;58.76
75555;BME280;66087;53.126;17.960;2023-06-14T01:54:06;101035.52;;;16.23;59.28
75555;BME280;66087;53.126;17.960;2023-06-14T01:56:33;101034.05;;;16.21;59.10
75555;BME280;66087;53.126;17.960;2023-06-14T01:59:19;101034.48;;;16.19;58.98
75555;BME280;66087;53.126;17.960;2023-06-14T02:01:46;101032.68;;;16.19;59.17
75555;BME280;66087;53.126;17.960;2023-06-14T02:04:13;101026.35;;;16.16;59.28
75555;BME280;66087;53.126;17.960;2023-06-14T02:06:39;101025.73;;;16.11;59.31
75555;BME280;66087;53.126;17.960;2023-06-14T02:09:06;101029.19;;;16.08;59.31
75555;BME280;66087;53.126;17.960;2023-06-14T02:11:33;101031.31;;;16.07;59.44
75555;BME280;66087;53.126;17.960;2023-06-14T02:14:24;101028.86;;;16.11;59.32
75555;BME280;66087;53.126;17.960;2023-06-14T02:16:51;101031.45;;;16.13;59.31
75555;BME280;66087;53.126;17.960;2023-06-14T02:19:20;101028.16;;;16.10;59.70
75555;BME280;66087;53.126;17.960;2023-06-14T02:21:46;101031.52;;;16.08;59.62
75555;BME280;66087;53.126;17.960;2023-06-14T02:24:14;101028.11;;;16.04;59.64
75555;BME280;66087;53.126;17.960;2023-06-14T02:26:41;101026.80;;;16.01;59.75
75555;BME280;66087;53.126;17.960;2023-06-14T02:29:08;101032.39;;;16.00;59.45
75555;BME280;66087;53.126;17.960;2023-06-14T02:31:40;101029.98;;;15.99;59.41
75555;BME280;66087;53.126;17.960;2023-06-14T02:34:26;101037.48;;;15.97;59.72
75555;BME280;66087;53.126;17.960;2023-06-14T02:36:55;101042.73;;;15.92;59.98
75555;BME280;66087;53.126;17.960;2023-06-14T02:39:21;101038.11;;;15.86;60.37
75555;BME280;66087;53.126;17.960;2023-06-14T02:41:49;101032.02;;;15.83;59.71
75555;BME280;66087;53.126;17.960;2023-06-14T02:44:24;101037.38;;;15.84;59.79
75555;BME280;66087;53.126;17.960;2023-06-14T02:46:53;101036.41;;;15.82;59.81
75555;BME280;66087;53.126;17.960;2023-06-14T02:49:39;101030.39;;;15.82;60.02
75555;BME280;66087;53.126;17.960;2023-06-14T02:52:05;101020.51;;;15.79;59.87
75555;BME280;66087;53.126;17.960;2023-06-14T02:54:32;101023.08;;;15.80;59.85
75555;BME280;66087;53.126;17.960;2023-06-14T02:56:59;101019.52;;;15.81;59.73
75555;BME280;66087;53.126;17.960;2023-06-14T02:59:27;101017.16;;;15.82;59.64
75555;BME280;66087;53.126;17.960;2023-06-14T03:01:54;101011.48;;;15.83;59.72
75555;BME280;66087;53.126;17.960;2023-06-14T03:04:25;101011.64;;;15.83;59.57
75555;BME280;66087;53.126;17.960;2023-06-14T03:06:52;101009.33;;;15.82;59.63
75555;BME280;66087;53.126;17.960;2023-06-14T03:09:20;101010.09;;;15.80;59.95
75555;BME280;66087;53.126;17.960;2023-06-14T03:11:51;101005.45;;;15.75;60.13
75555;BME280;66087;53.126;17.960;2023-06-14T03:14:22;101002.13;;;15.73;60.01
75555;BME280;66087;53.126;17.960;2023-06-14T03:16:53;101001.95;;;15.74;60.03
75555;BME280;66087;53.126;17.960;2023-06-14T03:19:23;101001.10;;;15.73;60.01
75555;BME280;66087;53.126;17.960;2023-06-14T03:21:51;101001.34;;;15.71;60.11
75555;BME280;66087;53.126;17.960;2023-06-14T03:24:18;100999.30;;;15.65;60.56
75555;BME280;66087;53.126;17.960;2023-06-14T03:26:46;101002.59;;;15.57;60.62
75555;BME280;66087;53.126;17.960;2023-06-14T03:29:15;101008.11;;;15.50;60.57
75555;BME280;66087;53.126;17.960;2023-06-14T03:31:57;101009.66;;;15.50;60.56
75555;BME280;66087;53.126;17.960;2023-06-14T03:34:45;101011.69;;;15.53;60.51
75555;BME280;66087;53.126;17.960;2023-06-14T03:37:36;101006.76;;;15.56;60.64
75555;BME280;66087;53.126;17.960;2023-06-14T03:40:05;101016.10;;;15.61;60.52
75555;BME280;66087;53.126;17.960;2023-06-14T03:42:32;101017.12;;;15.61;60.86
75555;BME280;66087;53.126;17.960;2023-06-14T03:44:59;101015.97;;;15.60;60.55
75555;BME280;66087;53.126;17.960;2023-06-14T03:47:31;101014.79;;;15.63;60.64
75555;BME280;66087;53.126;17.960;2023-06-14T03:49:58;101013.92;;;15.69;60.77
75555;BME280;66087;53.126;17.960;2023-06-14T03:52:26;101015.40;;;15.72;60.66
75555;BME280;66087;53.126;17.960;2023-06-14T03:54:52;101014.78;;;15.74;60.64
75555;BME280;66087;53.126;17.960;2023-06-14T03:57:19;101017.36;;;15.75;60.72
75555;BME280;66087;53.126;17.960;2023-06-14T03:59:53;101023.55;;;15.75;60.88
75555;BME280;66087;53.126;17.960;2023-06-14T04:02:24;101027.35;;;15.81;60.79
75555;BME280;66087;53.126;17.960;2023-06-14T04:04:51;101025.60;;;15.85;60.77
75555;BME280;66087;53.126;17.960;2023-06-14T04:07:24;101023.29;;;15.86;60.73
75555;BME280;66087;53.126;17.960;2023-06-14T04:09:52;101027.20;;;15.87;60.84
75555;BME280;66087;53.126;17.960;2023-06-14T04:12:20;101035.85;;;15.85;61.55
75555;BME280;66087;53.126;17.960;2023-06-14T04:14:48;101042.30;;;15.76;61.86
75555;BME280;66087;53.126;17.960;2023-06-14T04:17:16;101043.03;;;15.70;61.73
75555;BME280;66087;53.126;17.960;2023-06-14T04:19:45;101037.77;;;15.67;62.09
75555;BME280;66087;53.126;17.960;2023-06-14T04:22:13;101033.17;;;15.69;61.85
75555;BME280;66087;53.126;17.960;2023-06-14T04:24:41;101031.01;;;15.77;61.84
75555;BME280;66087;53.126;17.960;2023-06-14T04:27:11;101036.98;;;15.90;61.64
75555;BME280;66087;53.126;17.960;2023-06-14T04:29:40;101042.10;;;16.00;61.50
75555;BME280;66087;53.126;17.960;2023-06-14T04:32:11;101044.91;;;16.08;61.60
75555;BME280;66087;53.126;17.960;2023-06-14T04:34:43;101037.34;;;16.10;61.24
75555;BME280;66087;53.126;17.960;2023-06-14T04:37:13;101035.63;;;16.15;61.09
75555;BME280;66087;53.126;17.960;2023-06-14T04:39:41;101036.42;;;16.22;61.04
75555;BME280;66087;53.126;17.960;2023-06-14T04:42:09;101036.63;;;16.29;60.82
75555;BME280;66087;53.126;17.960;2023-06-14T04:44:38;101041.19;;;16.36;61.13
75555;BME280;66087;53.126;17.960;2023-06-14T04:47:14;101037.25;;;16.44;61.02
75555;BME280;66087;53.126;17.960;2023-06-14T04:49:42;101040.27;;;16.48;61.58
75555;BME280;66087;53.126;17.960;2023-06-14T04:52:09;101040.97;;;16.51;61.35
75555;BME280;66087;53.126;17.960;2023-06-14T04:54:45;101040.11;;;16.56;61.05
75555;BME280;66087;53.126;17.960;2023-06-14T04:57:16;101042.85;;;16.65;60.96
75555;BME280;66087;53.126;17.960;2023-06-14T04:59:46;101043.98;;;16.76;60.55
75555;BME280;66087;53.126;17.960;2023-06-14T05:02:12;101041.82;;;16.90;60.29
75555;BME280;66087;53.126;17.960;2023-06-14T05:04:38;101039.61;;;17.04;59.98
75555;BME280;66087;53.126;17.960;2023-06-14T05:07:08;101037.06;;;17.19;59.61
75555;BME280;66087;53.126;17.960;2023-06-14T05:09:36;101037.66;;;17.34;59.33
75555;BME280;66087;53.126;17.960;2023-06-14T05:12:11;101038.05;;;17.43;59.14
75555;BME280;66087;53.126;17.960;2023-06-14T05:14:44;101037.06;;;17.51;58.92
75555;BME280;66087;53.126;17.960;2023-06-14T05:17:10;101031.20;;;17.57;58.74
75555;BME280;66087;53.126;17.960;2023-06-14T05:19:42;101030.50;;;17.64;58.61
75555;BME280;66087;53.126;17.960;2023-06-14T05:22:10;101027.48;;;17.74;58.55
75555;BME280;66087;53.126;17.960;2023-06-14T05:24:56;100996.77;;;17.58;58.36
75555;BME280;66087;53.126;17.960;2023-06-14T05:27:27;101033.73;;;17.86;58.14
75555;BME280;66087;53.126;17.960;2023-06-14T05:29:53;101045.73;;;17.91;57.91
75555;BME280;66087;53.126;17.960;2023-06-14T05:32:25;101060.83;;;17.86;58.08
75555;BME280;66087;53.126;17.960;2023-06-14T05:34:51;101063.73;;;17.79;58.49
75555;BME280;66087;53.126;17.960;2023-06-14T05:37:17;101062.04;;;17.79;58.46
75555;BME280;66087;53.126;17.960;2023-06-14T05:39:44;101059.29;;;17.85;58.45
75555;BME280;66087;53.126;17.960;2023-06-14T05:42:10;101056.77;;;17.96;58.37
75555;BME280;66087;53.126;17.960;2023-06-14T05:44:38;101047.02;;;18.07;57.98
75555;BME280;66087;53.126;17.960;2023-06-14T05:47:05;101036.66;;;18.15;57.71
75555;BME280;66087;53.126;17.960;2023-06-14T05:49:32;101033.15;;;18.15;57.65
75555;BME280;66087;53.126;17.960;2023-06-14T05:51:58;101022.66;;;18.16;57.73
75555;BME280;66087;53.126;17.960;2023-06-14T05:54:28;101017.64;;;18.19;57.48
75555;BME280;66087;53.126;17.960;2023-06-14T05:56:55;101014.84;;;18.20;57.21
75555;BME280;66087;53.126;17.960;2023-06-14T05:59:31;101028.33;;;18.37;56.79
75555;BME280;66087;53.126;17.960;2023-06-14T06:01:58;101022.80;;;18.52;56.69
75555;BME280;66087;53.126;17.960;2023-06-14T06:04:25;101021.98;;;18.69;56.42
75555;BME280;66087;53.126;17.960;2023-06-14T06:06:51;101014.50;;;18.91;56.01
75555;BME280;66087;53.126;17.960;2023-06-14T06:09:21;101018.30;;;19.08;55.48
75555;BME280;66087;53.126;17.960;2023-06-14T06:11:47;101018.31;;;19.19;55.05
75555;BME280;66087;53.126;17.960;2023-06-14T06:14:13;101023.13;;;19.32;54.57
75555;BME280;66087;53.126;17.960;2023-06-14T06:16:39;101025.13;;;19.44;54.56
75555;BME280;66087;53.126;17.960;2023-06-14T06:19:05;101028.56;;;19.58;53.64
75555;BME280;66087;53.126;17.960;2023-06-14T06:21:31;101030.61;;;19.75;53.47
75555;BME280;66087;53.126;17.960;2023-06-14T06:23:58;101036.37;;;19.97;53.01
75555;BME280;66087;53.126;17.960;2023-06-14T06:26:23;101042.38;;;20.18;52.83
75555;BME280;66087;53.126;17.960;2023-06-14T06:28:56;101028.64;;;20.33;52.42
75555;BME280;66087;53.126;17.960;2023-06-14T06:31:25;101039.57;;;20.53;52.16
75555;BME280;66087;53.126;17.960;2023-06-14T06:33:58;101039.72;;;20.62;51.68
75555;BME280;66087;53.126;17.960;2023-06-14T06:36:25;101040.45;;;20.67;51.13
75555;BME280;66087;53.126;17.960;2023-06-14T06:38:56;101044.05;;;20.73;50.69
75555;BME280;66087;53.126;17.960;2023-06-14T06:41:26;101049.93;;;20.83;50.61
75555;BME280;66087;53.126;17.960;2023-06-14T06:43:57;101047.75;;;21.00;50.27
75555;BME280;66087;53.126;17.960;2023-06-14T06:49:30;101051.61;;;21.15;49.47
75555;BME280;66087;53.126;17.960;2023-06-14T06:52:03;101052.40;;;21.19;48.57
75555;BME280;66087;53.126;17.960;2023-06-14T06:54:29;101056.08;;;21.21;48.79
75555;BME280;66087;53.126;17.960;2023-06-14T06:56:57;101055.27;;;21.32;48.62
75555;BME280;66087;53.126;17.960;2023-06-14T06:59:23;101061.80;;;21.41;48.18
75555;BME280;66087;53.126;17.960;2023-06-14T07:01:50;101062.86;;;21.39;47.97
75555;BME280;66087;53.126;17.960;2023-06-14T07:04:19;101063.98;;;21.42;48.32
75555;BME280;66087;53.126;17.960;2023-06-14T07:06:46;101060.75;;;21.46;48.40
75555;BME280;66087;53.126;17.960;2023-06-14T07:09:21;101062.75;;;21.51;48.02
75555;BME280;66087;53.126;17.960;2023-06-14T07:11:56;101062.14;;;21.53;47.80
75555;BME280;66087;53.126;17.960;2023-06-14T07:14:25;101063.08;;;21.52;47.48
75555;BME280;66087;53.126;17.960;2023-06-14T07:16:53;101065.92;;;21.49;47.07
75555;BME280;66087;53.126;17.960;2023-06-14T07:19:20;101070.66;;;21.44;47.55
75555;BME280;66087;53.126;17.960;2023-06-14T07:21:50;101070.11;;;21.39;47.60
75555;BME280;66087;53.126;17.960;2023-06-14T07:24:17;101072.77;;;21.41;47.58
75555;BME280;66087;53.126;17.960;2023-06-14T07:26:47;101080.23;;;21.55;47.51
75555;BME280;66087;53.126;17.960;2023-06-14T07:29:14;101075.98;;;21.66;47.05
75555;BME280;66087;53.126;17.960;2023-06-14T07:31:42;101077.69;;;21.71;46.71
75555;BME280;66087;53.126;17.960;2023-06-14T07:34:09;101075.80;;;21.76;46.88
75555;BME280;66087;53.126;17.960;2023-06-14T07:36:36;101077.77;;;21.87;46.58
75555;BME280;66087;53.126;17.960;2023-06-14T07:39:22;101075.20;;;22.00;46.35
75555;BME280;66087;53.126;17.960;2023-06-14T07:41:49;101076.36;;;22.13;46.25
75555;BME280;66087;53.126;17.960;2023-06-14T07:44:16;101076.70;;;22.32;46.02
75555;BME280;66087;53.126;17.960;2023-06-14T07:46:48;101073.36;;;22.42;45.41
75555;BME280;66087;53.126;17.960;2023-06-14T07:49:17;101068.27;;;22.37;45.25
75555;BME280;66087;53.126;17.960;2023-06-14T07:51:46;101060.70;;;22.32;45.08
75555;BME280;66087;53.126;17.960;2023-06-14T07:54:12;101054.64;;;22.35;44.68
75555;BME280;66087;53.126;17.960;2023-06-14T07:56:39;101051.52;;;22.32;44.50
75555;BME280;66087;53.126;17.960;2023-06-14T07:59:08;101046.91;;;22.40;44.72
75555;BME280;66087;53.126;17.960;2023-06-14T08:01:34;101049.80;;;22.50;44.74
75555;BME280;66087;53.126;17.960;2023-06-14T08:04:08;101057.45;;;22.66;44.61
75555;BME280;66087;53.126;17.960;2023-06-14T08:06:34;101053.91;;;22.82;44.30
75555;BME280;66087;53.126;17.960;2023-06-14T08:09:04;101050.87;;;22.88;43.92
75555;BME280;66087;53.126;17.960;2023-06-14T08:11:31;101049.07;;;23.04;43.94
75555;BME280;66087;53.126;17.960;2023-06-14T08:13:57;101047.79;;;23.15;43.27
75555;BME280;66087;53.126;17.960;2023-06-14T08:16:23;101050.13;;;23.15;42.77
75555;BME280;66087;53.126;17.960;2023-06-14T08:19:13;101052.31;;;23.05;43.04
75555;BME280;66087;53.126;17.960;2023-06-14T08:21:39;101055.48;;;23.12;42.76
75555;BME280;66087;53.126;17.960;2023-06-14T08:24:11;101057.59;;;23.19;42.31
75555;BME280;66087;53.126;17.960;2023-06-14T08:26:38;101060.52;;;23.36;42.38
75555;BME280;66087;53.126;17.960;2023-06-14T08:29:06;101058.02;;;23.56;42.07
75555;BME280;66087;53.126;17.960;2023-06-14T08:31:34;101056.67;;;23.76;41.77
75555;BME280;66087;53.126;17.960;2023-06-14T08:34:02;101062.17;;;23.85;40.74
75555;BME280;66087;53.126;17.960;2023-06-14T08:36:28;101062.52;;;23.78;40.88
75555;BME280;66087;53.126;17.960;2023-06-14T08:38:55;101052.65;;;23.82;40.99
75555;BME280;66087;53.126;17.960;2023-06-14T08:41:22;101041.27;;;23.73;40.89
75555;BME280;66087;53.126;17.960;2023-06-14T08:43:52;101044.62;;;23.61;41.33
75555;BME280;66087;53.126;17.960;2023-06-14T08:46:19;101055.27;;;23.60;41.12
75555;BME280;66087;53.126;17.960;2023-06-14T08:48:49;101061.10;;;23.58;40.94
75555;BME280;66087;53.126;17.960;2023-06-14T08:51:18;101060.64;;;23.57;40.63
75555;BME280;66087;53.126;17.960;2023-06-14T08:53:53;101062.45;;;23.49;40.74
75555;BME280;66087;53.126;17.960;2023-06-14T08:56:26;101065.02;;;23.56;41.07
75555;BME280;66087;53.126;17.960;2023-06-14T08:58:59;101066.31;;;23.69;40.56
75555;BME280;66087;53.126;17.960;2023-06-14T09:01:53;101063.17;;;23.77;40.57
75555;BME280;66087;53.126;17.960;2023-06-14T09:04:22;101063.73;;;23.94;40.62
75555;BME280;66087;53.126;17.960;2023-06-14T09:06:48;101065.42;;;24.16;40.08
75555;BME280;66087;53.126;17.960;2023-06-14T09:09:23;101062.59;;;24.34;39.90
75555;BME280;66087;53.126;17.960;2023-06-14T09:11:52;101064.48;;;24.52;39.78
75555;BME280;66087;53.126;17.960;2023-06-14T09:14:19;101066.14;;;24.63;39.63
75555;BME280;66087;53.126;17.960;2023-06-14T09:16:47;101067.23;;;24.68;39.21
75555;BME280;66087;53.126;17.960;2023-06-14T09:19:23;101070.90;;;24.66;38.74
75555;BME280;66087;53.126;17.960;2023-06-14T09:21:50;101071.93;;;24.68;38.60
75555;BME280;66087;53.126;17.960;2023-06-14T09:24:17;101076.68;;;24.82;39.22
75555;BME280;66087;53.126;17.960;2023-06-14T09:27:03;101077.63;;;25.03;38.79
75555;BME280;66087;53.126;17.960;2023-06-14T09:29:30;101077.23;;;25.14;38.36
75555;BME280;66087;53.126;17.960;2023-06-14T09:31:58;101079.57;;;25.18;37.88
75555;BME280;66087;53.126;17.960;2023-06-14T09:34:25;101080.04;;;25.20;38.06
75555;BME280;66087;53.126;17.960;2023-06-14T09:36:52;101074.55;;;25.29;37.91
75555;BME280;66087;53.126;17.960;2023-06-14T09:39:20;101076.48;;;25.28;37.65
75555;BME280;66087;53.126;17.960;2023-06-14T09:41:48;101077.64;;;25.17;37.77
75555;BME280;66087;53.126;17.960;2023-06-14T09:44:15;101065.27;;;24.93;37.73
75555;BME280;66087;53.126;17.960;2023-06-14T09:46:44;101071.86;;;24.91;37.79
75555;BME280;66087;53.126;17.960;2023-06-14T09:49:10;101068.35;;;24.90;37.83
75555;BME280;66087;53.126;17.960;2023-06-14T09:51:42;101066.27;;;24.88;37.71
75555;BME280;66087;53.126;17.960;2023-06-14T09:54:28;101069.30;;;25.01;37.98
75555;BME280;66087;53.126;17.960;2023-06-14T09:56:55;101065.03;;;25.15;37.77
75555;BME280;66087;53.126;17.960;2023-06-14T09:59:22;101061.20;;;25.30;37.43
75555;BME280;66087;53.126;17.960;2023-06-14T10:01:57;101061.90;;;25.39;36.88
75555;BME280;66087;53.126;17.960;2023-06-14T10:04:31;101059.11;;;25.44;36.46
75555;BME280;66087;53.126;17.960;2023-06-14T10:07:00;101055.45;;;25.36;36.59
75555;BME280;66087;53.126;17.960;2023-06-14T10:09:29;101050.98;;;25.34;36.77
75555;BME280;66087;53.126;17.960;2023-06-14T10:11:56;101048.08;;;25.43;36.70
75555;BME280;66087;53.126;17.960;2023-06-14T10:14:22;101043.38;;;25.54;36.33
75555;BME280;66087;53.126;17.960;2023-06-14T10:17:06;101042.27;;;25.60;35.98
75555;BME280;66087;53.126;17.960;2023-06-14T10:19:46;101041.92;;;25.58;36.37
75555;BME280;66087;53.126;17.960;2023-06-14T10:22:23;101043.83;;;25.74;36.07
75555;BME280;66087;53.126;17.960;2023-06-14T10:24:55;101039.12;;;25.77;36.14
75555;BME280;66087;53.126;17.960;2023-06-14T10:27:22;101037.25;;;25.82;36.13
75555;BME280;66087;53.126;17.960;2023-06-14T10:30:03;101038.73;;;25.92;35.37
75555;BME280;66087;53.126;17.960;2023-06-14T10:32:31;101038.27;;;25.82;34.56
75555;BME280;66087;53.126;17.960;2023-06-14T10:35:06;101035.86;;;25.69;34.69
75555;BME280;66087;53.126;17.960;2023-06-14T10:37:34;101030.25;;;25.54;34.65
75555;BME280;66087;53.126;17.960;2023-06-14T10:40:02;101030.02;;;25.46;35.27
75555;BME280;66087;53.126;17.960;2023-06-14T10:42:32;101029.10;;;25.47;35.23
75555;BME280;66087;53.126;17.960;2023-06-14T10:45:00;101027.60;;;25.50;34.71
75555;BME280;66087;53.126;17.960;2023-06-14T10:47:29;101024.50;;;25.44;34.25
75555;BME280;66087;53.126;17.960;2023-06-14T10:50:06;101022.78;;;25.48;34.87
75555;BME280;66087;53.126;17.960;2023-06-14T10:52:41;101020.31;;;25.71;34.69
75555;BME280;66087;53.126;17.960;2023-06-14T10:55:17;101015.92;;;25.78;34.19
75555;BME280;66087;53.126;17.960;2023-06-14T10:57:53;101012.94;;;25.77;34.37
75555;BME280;66087;53.126;17.960;2023-06-14T11:00:26;101009.23;;;25.79;34.56
75555;BME280;66087;53.126;17.960;2023-06-14T11:03:28;101009.54;;;25.87;34.16
75555;BME280;66087;53.126;17.960;2023-06-14T11:05:58;101011.48;;;26.07;34.04
75555;BME280;66087;53.126;17.960;2023-06-14T11:08:39;101013.82;;;26.32;34.16
75555;BME280;66087;53.126;17.960;2023-06-14T11:11:08;101007.52;;;26.64;33.19
75555;BME280;66087;53.126;17.960;2023-06-14T11:13:38;101005.44;;;26.83;32.95
75555;BME280;66087;53.126;17.960;2023-06-14T11:16:15;101003.78;;;26.97;32.36
75555;BME280;66087;53.126;17.960;2023-06-14T11:18:44;100996.20;;;27.19;32.14
75555;BME280;66087;53.126;17.960;2023-06-14T11:21:31;100989.35;;;27.48;32.24
75555;BME280;66087;53.126;17.960;2023-06-14T11:23:59;101000.38;;;27.97;31.52
75555;BME280;66087;53.126;17.960;2023-06-14T11:26:47;100997.13;;;28.23;31.28
75555;BME280;66087;53.126;17.960;2023-06-14T11:29:15;100993.31;;;28.18;31.17
75555;BME280;66087;53.126;17.960;2023-06-14T11:31:43;100995.79;;;28.08;31.42
75555;BME280;66087;53.126;17.960;2023-06-14T11:34:17;100992.27;;;28.06;30.87
75555;BME280;66087;53.126;17.960;2023-06-14T11:36:44;100990.41;;;28.03;30.81
75555;BME280;66087;53.126;17.960;2023-06-14T11:39:11;100989.33;;;28.00;30.58
75555;BME280;66087;53.126;17.960;2023-06-14T11:41:43;100993.36;;;27.80;30.37
75555;BME280;66087;53.126;17.960;2023-06-14T11:44:10;100998.75;;;27.79;30.62
75555;BME280;66087;53.126;17.960;2023-06-14T11:46:36;100998.59;;;27.79;30.86
75555;BME280;66087;53.126;17.960;2023-06-14T11:49:03;101000.06;;;27.74;30.62
75555;BME280;66087;53.126;17.960;2023-06-14T11:51:59;100996.59;;;27.62;30.50
75555;BME280;66087;53.126;17.960;2023-06-14T11:54:28;100994.20;;;27.34;31.90
75555;BME280;66087;53.126;17.960;2023-06-14T11:56:54;100988.53;;;27.01;32.03
75555;BME280;66087;53.126;17.960;2023-06-14T11:59:21;100991.02;;;26.64;32.58
75555;BME280;66087;53.126;17.960;2023-06-14T12:01:48;100990.09;;;26.16;33.20
75555;BME280;66087;53.126;17.960;2023-06-14T12:04:14;100985.92;;;25.70;33.76
75555;BME280;66087;53.126;17.960;2023-06-14T12:06:40;100983.64;;;25.42;33.88
75555;BME280;66087;53.126;17.960;2023-06-14T12:09:07;100980.30;;;25.08;34.51
75555;BME280;66087;53.126;17.960;2023-06-14T12:11:42;100979.33;;;24.74;35.17
75555;BME280;66087;53.126;17.960;2023-06-14T12:14:09;100980.73;;;24.44;35.19
75555;BME280;66087;53.126;17.960;2023-06-14T12:16:38;100978.92;;;24.23;35.58
75555;BME280;66087;53.126;17.960;2023-06-14T12:19:13;100976.28;;;24.02;35.90
75555;BME280;66087;53.126;17.960;2023-06-14T12:21:41;100976.00;;;23.81;36.20
75555;BME280;66087;53.126;17.960;2023-06-14T12:24:12;100962.52;;;23.48;36.59
75555;BME280;66087;53.126;17.960;2023-06-14T12:26:39;100975.73;;;23.39;36.73
75555;BME280;66087;53.126;17.960;2023-06-14T12:29:07;100976.68;;;23.25;37.00
75555;BME280;66087;53.126;17.960;2023-06-14T12:31:38;100979.55;;;23.11;37.39
75555;BME280;66087;53.126;17.960;2023-06-14T12:34:07;100981.89;;;22.99;37.91
75555;BME280;66087;53.126;17.960;2023-06-14T12:36:33;100983.89;;;22.91;38.16
75555;BME280;66087;53.126;17.960;2023-06-14T12:39:02;100985.88;;;22.77;38.96
75555;BME280;66087;53.126;17.960;2023-06-14T12:41:29;100983.00;;;22.62;38.66
75555;BME280;66087;53.126;17.960;2023-06-14T12:43:55;100983.55;;;22.51;38.71
75555;BME280;66087;53.126;17.960;2023-06-14T12:46:21;100988.20;;;22.45;39.07
75555;BME280;66087;53.126;17.960;2023-06-14T12:48:48;100992.45;;;22.34;39.62
75555;BME280;66087;53.126;17.960;2023-06-14T12:51:14;100999.89;;;22.25;40.09
75555;BME280;66087;53.126;17.960;2023-06-14T12:53:41;100997.13;;;22.15;40.62
75555;BME280;66087;53.126;17.960;2023-06-14T12:56:06;100997.86;;;22.08;40.84
75555;BME280;66087;53.126;17.960;2023-06-14T12:59:08;101002.05;;;21.99;40.27
75555;BME280;66087;53.126;17.960;2023-06-14T13:01:34;100999.51;;;21.95;39.64
75555;BME280;66087;53.126;17.960;2023-06-14T13:04:00;101005.44;;;21.95;39.30